Time;durP1;ratioP1;P1;durP2;ratioP2;P2;SDS_P1;SDS_P2;PMS_P1;PMS_P2;Temp;Humidity;BMP_temperature;BMP_pressure;BME280_temperature;BME280_humidity;BME280_pressure;Samples;Min_cycle;Max_cycle;Signal;HPM_P1;HPM_P2
2023/04/18 00:00:11;;;;;;;44.58;27.95;;;;;;;;;;5017141;28;20049;-90
2023/04/18 00:02:38;;;;;;;52.45;30.73;;;;;;;;;;5017171;28;20053;-92
2023/04/18 00:05:07;;;;;;;49.85;29.65;;;;;;;;;;5017154;28;20048;-92
2023/04/18 00:07:34;;;;;;;53.38;31.80;;;;;;;;;;5017200;28;20456;-92
2023/04/18 00:10:02;;;;;;;49.35;31.13;;;;;;;;;;5017279;28;20053;-93
2023/04/18 00:12:30;;;;;;;43.75;28.95;;;;;;;;;;5017026;28;20050;-92
2023/04/18 00:14:57;;;;;;;50.65;30.55;;;;;;;;;;5016212;28;20504;-91
2023/04/18 00:17:29;;;;;;;53.80;31.55;;;;;;;;;;5017171;28;20103;-91
2023/04/18 00:19:57;;;;;;;46.80;29.10;;;;;;;;;;5016732;28;20124;-91
2023/04/18 00:22:25;;;;;;;54.28;31.02;;;;;;;;;;5017015;28;20309;-92
2023/04/18 00:24:52;;;;;;;46.10;29.65;;;;;;;;;;5016709;28;20052;-92
2023/04/18 00:27:20;;;;;;;44.13;28.08;;;;;;;;;;5016656;28;20497;-91
2023/04/18 00:29:48;;;;;;;41.28;28.20;;;;;;;;;;5016467;28;20053;-92
2023/04/18 00:32:15;;;;;;;45.38;28.27;;;;;;;;;;5016848;28;20141;-92
2023/04/18 00:34:43;;;;;;;45.83;28.38;;;;;;;;;;5033722;28;20111;-91
2023/04/18 00:37:10;;;;;;;41.35;26.40;;;;;;;;;;5034085;28;20045;-91
2023/04/18 00:39:37;;;;;;;40.65;26.90;;;;;;;;;;5016713;28;20046;-91
2023/04/18 00:42:04;;;;;;;39.50;25.52;;;;;;;;;;5016835;28;20053;-92
2023/04/18 00:44:32;;;;;;;40.50;25.05;;;;;;;;;;5016654;28;20386;-92
2023/04/18 00:46:59;;;;;;;39.80;25.15;;;;;;;;;;5016580;28;20113;-92
2023/04/18 00:49:27;;;;;;;33.10;24.27;;;;;;;;;;5016255;28;20060;-91
2023/04/18 00:51:55;;;;;;;41.97;25.65;;;;;;;;;;5016620;28;20050;-92
2023/04/18 00:54:23;;;;;;;38.45;25.50;;;;;;;;;;5016350;28;20457;-91
2023/04/18 00:56:51;;;;;;;33.60;23.88;;;;;;;;;;5016242;28;20057;-92
2023/04/18 00:59:18;;;;;;;32.67;22.42;;;;;;;;;;5033440;28;20045;-91
2023/04/18 01:01:45;;;;;;;32.75;22.95;;;;;;;;;;5016145;28;20062;-91
2023/04/18 01:04:13;;;;;;;33.03;21.63;;;;;;;;;;5033669;28;20104;-92
2023/04/18 01:06:42;;;;;;;31.10;21.77;;;;;;;;;;5015269;28;20057;-92
2023/04/18 01:09:10;;;;;;;36.17;22.60;;;;;;;;;;5015437;28;20099;-92
2023/04/18 01:11:37;;;;;;;32.22;21.98;;;;;;;;;;5016310;28;20078;-92
2023/04/18 01:14:07;;;;;;;36.20;20.75;;;;;;;;;;5015820;28;20049;-91
2023/04/18 01:16:35;;;;;;;28.63;19.60;;;;;;;;;;5015620;28;20505;-91
2023/04/18 01:19:04;;;;;;;27.27;18.98;;;;;;;;;;5015995;28;20045;-91
2023/04/18 01:21:34;;;;;;;30.35;19.52;;;;;;;;;;5016136;28;20060;-92
2023/04/18 01:24:10;;;;;;;27.38;18.35;;;;;;;;;;5016656;28;20042;-92
2023/04/18 01:26:38;;;;;;;25.23;18.67;;;;;;;;;;5017635;28;20084;-92
2023/04/18 01:29:05;;;;;;;27.95;18.45;;;;;;;;;;5017616;28;20057;-92
2023/04/18 01:31:36;;;;;;;25.55;18.33;;;;;;;;;;5016069;28;20049;-92
2023/04/18 01:34:04;;;;;;;24.70;17.52;;;;;;;;;;5016080;28;20072;-93
2023/04/18 01:36:31;;;;;;;24.48;17.90;;;;;;;;;;5015464;28;20057;-92
2023/04/18 01:38:59;;;;;;;28.73;19.08;;;;;;;;;;5033150;28;20050;-90
2023/04/18 01:41:28;;;;;;;27.67;18.65;;;;;;;;;;5015840;28;20057;-92
2023/04/18 01:43:55;;;;;;;27.05;17.70;;;;;;;;;;5015554;28;20135;-92
2023/04/18 01:46:23;;;;;;;25.02;17.85;;;;;;;;;;5015708;28;20045;-93
2023/04/18 01:48:50;;;;;;;26.75;18.35;;;;;;;;;;5015742;28;20073;-92
2023/04/18 01:51:17;;;;;;;25.85;18.48;;;;;;;;;;5015524;28;20050;-92
2023/04/18 01:53:44;;;;;;;26.58;18.05;;;;;;;;;;5015470;28;20056;-92
2023/04/18 01:56:11;;;;;;;28.45;17.63;;;;;;;;;;5015609;28;20149;-91
2023/04/18 01:58:40;;;;;;;27.45;18.48;;;;;;;;;;5015550;28;20402;-92
2023/04/18 02:01:07;;;;;;;29.17;19.35;;;;;;;;;;5015758;28;20073;-92
2023/04/18 02:03:35;;;;;;;32.38;19.58;;;;;;;;;;5032938;28;20053;-92
2023/04/18 02:06:03;;;;;;;26.85;18.05;;;;;;;;;;5032912;28;20049;-92
2023/04/18 02:08:34;;;;;;;26.75;18.08;;;;;;;;;;5015886;28;20045;-92
2023/04/18 02:11:02;;;;;;;29.30;19.13;;;;;;;;;;5015573;28;20054;-92
2023/04/18 02:13:29;;;;;;;28.48;19.13;;;;;;;;;;5033011;28;20045;-91
2023/04/18 02:15:57;;;;;;;35.15;20.33;;;;;;;;;;5015773;28;20045;-92
2023/04/18 02:18:24;;;;;;;33.05;19.75;;;;;;;;;;5032721;28;20045;-91
2023/04/18 02:20:51;;;;;;;29.40;18.33;;;;;;;;;;5019218;28;20445;-92
2023/04/18 02:23:19;;;;;;;35.08;19.70;;;;;;;;;;5019241;28;20096;-91
2023/04/18 02:25:46;;;;;;;31.13;19.73;;;;;;;;;;5018690;28;20045;-92
2023/04/18 02:28:13;;;;;;;32.08;20.70;;;;;;;;;;5036168;28;20133;-91
2023/04/18 02:30:40;;;;;;;33.78;20.30;;;;;;;;;;5018946;28;20132;-91
2023/04/18 02:33:07;;;;;;;27.75;19.35;;;;;;;;;;5018865;28;20045;-91
2023/04/18 02:35:36;;;;;;;32.47;20.58;;;;;;;;;;5036239;28;20053;-92
2023/04/18 02:38:04;;;;;;;25.10;18.00;;;;;;;;;;5018813;28;20136;-92
2023/04/18 02:40:31;;;;;;;29.75;19.35;;;;;;;;;;5018689;28;20088;-91
2023/04/18 02:42:58;;;;;;;30.45;20.10;;;;;;;;;;5018706;28;20060;-93
2023/04/18 02:45:25;;;;;;;29.27;19.05;;;;;;;;;;5018564;28;20052;-92
2023/04/18 02:47:52;;;;;;;28.15;18.52;;;;;;;;;;5018563;28;20053;-92
2023/04/18 02:50:23;;;;;;;30.02;19.52;;;;;;;;;;5036089;28;20050;-92
2023/04/18 02:52:50;;;;;;;31.38;18.60;;;;;;;;;;5018085;28;20497;-92
2023/04/18 02:55:17;;;;;;;28.17;18.00;;;;;;;;;;5018217;28;20049;-92
2023/04/18 02:57:45;;;;;;;26.38;19.08;;;;;;;;;;5018287;28;20060;-92
2023/04/18 03:00:12;;;;;;;31.65;18.27;;;;;;;;;;5018087;28;20053;-91
2023/04/18 03:02:39;;;;;;;28.83;18.50;;;;;;;;;;5035463;28;20509;-92
2023/04/18 03:05:07;;;;;;;27.38;18.70;;;;;;;;;;5018151;28;20048;-92
2023/04/18 03:07:35;;;;;;;27.45;18.08;;;;;;;;;;5018353;28;20053;-91
2023/04/18 03:10:02;;;;;;;30.52;18.70;;;;;;;;;;5035365;28;20493;-92
2023/04/18 03:12:29;;;;;;;32.45;17.67;;;;;;;;;;5018119;28;20128;-91
2023/04/18 03:14:56;;;;;;;30.02;17.80;;;;;;;;;;5018084;28;20056;-91
2023/04/18 03:17:24;;;;;;;34.80;19.73;;;;;;;;;;5017740;28;20344;-92
2023/04/18 03:19:51;;;;;;;29.80;17.73;;;;;;;;;;5018009;28;20409;-92
2023/04/18 03:22:18;;;;;;;31.25;18.75;;;;;;;;;;5035521;28;20052;-92
2023/04/18 03:24:45;;;;;;;33.63;19.88;;;;;;;;;;5035274;28;20476;-91
2023/04/18 03:27:12;;;;;;;42.30;20.92;;;;;;;;;;5017823;28;20052;-91
2023/04/18 03:29:40;;;;;;;30.00;18.92;;;;;;;;;;5017342;28;20148;-91
2023/04/18 03:32:07;;;;;;;31.30;19.60;;;;;;;;;;5034149;28;20053;-92
2023/04/18 03:34:34;;;;;;;30.05;19.55;;;;;;;;;;5017704;28;20056;-93
2023/04/18 03:37:02;;;;;;;31.75;19.10;;;;;;;;;;5017499;28;20516;-92
2023/04/18 03:39:29;;;;;;;33.38;20.42;;;;;;;;;;5017688;28;20064;-92
2023/04/18 03:41:56;;;;;;;33.22;20.17;;;;;;;;;;5017803;28;20050;-92
2023/04/18 03:44:23;;;;;;;30.52;18.90;;;;;;;;;;5017940;28;20084;-92
2023/04/18 03:46:50;;;;;;;32.28;20.48;;;;;;;;;;5035177;28;20053;-92
2023/04/18 03:49:18;;;;;;;31.15;20.38;;;;;;;;;;5034633;28;20041;-93
2023/04/18 03:51:49;;;;;;;35.30;20.35;;;;;;;;;;5017524;28;20068;-92
2023/04/18 03:54:16;;;;;;;39.13;20.85;;;;;;;;;;5017370;28;20049;-91
2023/04/18 03:56:44;;;;;;;36.47;20.83;;;;;;;;;;5017352;28;20069;-92
2023/04/18 03:59:11;;;;;;;39.30;21.88;;;;;;;;;;5017061;28;20485;-91
2023/04/18 04:01:38;;;;;;;41.85;22.23;;;;;;;;;;5017385;28;20132;-91
2023/04/18 04:04:07;;;;;;;37.05;21.98;;;;;;;;;;5017290;28;20103;-91
2023/04/18 04:06:35;;;;;;;38.38;21.40;;;;;;;;;;5017437;28;20445;-92
2023/04/18 04:09:02;;;;;;;39.38;22.92;;;;;;;;;;5016943;28;20067;-91
2023/04/18 04:11:30;;;;;;;47.80;24.35;;;;;;;;;;5017336;28;20046;-92
2023/04/18 04:13:57;;;;;;;41.80;23.95;;;;;;;;;;5016911;28;20486;-91
2023/04/18 04:16:24;;;;;;;41.22;22.85;;;;;;;;;;5016985;28;20079;-90
2023/04/18 04:18:52;;;;;;;43.92;23.50;;;;;;;;;;5034268;28;20049;-91
2023/04/18 04:21:19;;;;;;;45.40;24.10;;;;;;;;;;5016799;28;20049;-91
2023/04/18 04:23:47;;;;;;;42.08;22.42;;;;;;;;;;5034153;28;20080;-92
2023/04/18 04:26:15;;;;;;;45.92;23.80;;;;;;;;;;5017013;28;20473;-92
2023/04/18 04:28:45;;;;;;;47.25;24.23;;;;;;;;;;5016927;28;20060;-92
2023/04/18 04:31:12;;;;;;;39.80;23.10;;;;;;;;;;5016889;28;20049;-91
2023/04/18 04:33:39;;;;;;;43.88;24.35;;;;;;;;;;5016835;28;20576;-91
2023/04/18 04:36:07;;;;;;;43.97;23.48;;;;;;;;;;5016641;28;20037;-91
2023/04/18 04:38:37;;;;;;;44.13;23.23;;;;;;;;;;5016650;28;20472;-91
2023/04/18 04:41:08;;;;;;;40.67;22.35;;;;;;;;;;5016241;28;20386;-92
2023/04/18 04:43:35;;;;;;;44.33;22.40;;;;;;;;;;5016331;28;20128;-91
2023/04/18 04:46:03;;;;;;;44.08;23.65;;;;;;;;;;5016493;28;20136;-91
2023/04/18 04:48:30;;;;;;;41.50;22.15;;;;;;;;;;5016563;28;20060;-92
2023/04/18 04:50:58;;;;;;;43.05;23.55;;;;;;;;;;5016356;28;20060;-91
2023/04/18 04:53:31;;;;;;;46.22;23.45;;;;;;;;;;5016811;28;20482;-91
2023/04/18 04:55:59;;;;;;;45.58;22.63;;;;;;;;;;5016186;28;20144;-91
2023/04/18 04:58:26;;;;;;;49.70;24.10;;;;;;;;;;5016338;28;20509;-91
2023/04/18 05:00:53;;;;;;;40.95;23.20;;;;;;;;;;5016451;28;20045;-91
2023/04/18 05:03:20;;;;;;;54.90;25.30;;;;;;;;;;5016282;28;20049;-91
2023/04/18 05:05:48;;;;;;;50.03;25.90;;;;;;;;;;5016092;28;20111;-91
2023/04/18 05:08:15;;;;;;;50.33;26.08;;;;;;;;;;5008272;28;20409;-91
2023/04/18 05:10:44;;;;;;;51.15;26.65;;;;;;;;;;5014381;28;20132;-91
2023/04/18 05:13:11;;;;;;;51.95;25.02;;;;;;;;;;5013399;28;20130;-91
2023/04/18 05:15:39;;;;;;;46.85;24.35;;;;;;;;;;4994961;28;20456;-91
2023/04/18 05:18:07;;;;;;;46.28;24.65;;;;;;;;;;4995532;28;20058;-91
2023/04/18 05:20:34;;;;;;;49.20;24.83;;;;;;;;;;4996870;28;20085;-91
2023/04/18 05:23:02;;;;;;;49.53;23.85;;;;;;;;;;4996434;28;20054;-92
2023/04/18 05:25:30;;;;;;;49.38;25.02;;;;;;;;;;4996447;28;20057;-91
2023/04/18 05:27:57;;;;;;;49.08;25.30;;;;;;;;;;5013610;28;20050;-90
2023/04/18 05:30:24;;;;;;;51.20;24.55;;;;;;;;;;4996065;28;20057;-91
2023/04/18 05:32:52;;;;;;;51.80;24.48;;;;;;;;;;5013550;28;20533;-91
2023/04/18 05:35:19;;;;;;;53.00;25.55;;;;;;;;;;4996249;28;20072;-91
2023/04/18 05:37:50;;;;;;;53.80;25.15;;;;;;;;;;5014023;28;20502;-90
2023/04/18 05:40:17;;;;;;;47.78;24.58;;;;;;;;;;4996263;28;20406;-91
2023/04/18 05:42:44;;;;;;;41.60;23.80;;;;;;;;;;5013492;28;20042;-91
2023/04/18 05:45:11;;;;;;;46.28;24.50;;;;;;;;;;4996147;28;20053;-91
2023/04/18 05:47:39;;;;;;;45.10;23.05;;;;;;;;;;4996109;28;20068;-90
2023/04/18 05:50:07;;;;;;;38.13;21.73;;;;;;;;;;4996262;28;20054;-91
2023/04/18 05:52:36;;;;;;;34.75;19.13;;;;;;;;;;4996208;28;20052;-92
2023/04/18 05:55:04;;;;;;;32.40;18.45;;;;;;;;;;4998723;28;20100;-91
2023/04/18 05:57:31;;;;;;;35.80;18.90;;;;;;;;;;5017255;28;20409;-90
2023/04/18 05:59:58;;;;;;;32.50;18.15;;;;;;;;;;4999833;28;20050;-91
2023/04/18 06:02:26;;;;;;;38.78;20.95;;;;;;;;;;4999644;28;20145;-90
2023/04/18 06:04:53;;;;;;;30.45;18.83;;;;;;;;;;4999652;28;20053;-91
2023/04/18 06:07:23;;;;;;;31.48;18.45;;;;;;;;;;5000066;28;20410;-91
2023/04/18 06:09:52;;;;;;;29.25;17.70;;;;;;;;;;4999699;28;20045;-91
2023/04/18 06:12:20;;;;;;;28.83;18.30;;;;;;;;;;5017339;28;20057;-91
2023/04/18 06:14:47;;;;;;;41.47;26.00;;;;;;;;;;5016535;28;20054;-91
2023/04/18 06:17:14;;;;;;;34.22;23.20;;;;;;;;;;4999161;28;20050;-91
2023/04/18 06:19:41;;;;;;;33.28;20.83;;;;;;;;;;4999695;28;20054;-91
2023/04/18 06:22:09;;;;;;;31.52;22.23;;;;;;;;;;4999665;28;20056;-91
2023/04/18 06:24:36;;;;;;;30.23;18.73;;;;;;;;;;4999540;28;20417;-91
2023/04/18 06:27:04;;;;;;;35.00;22.80;;;;;;;;;;4999269;28;20056;-91
2023/04/18 06:29:32;;;;;;;32.60;21.83;;;;;;;;;;5016370;28;20069;-92
2023/04/18 06:31:59;;;;;;;26.83;17.00;;;;;;;;;;4999597;28;20042;-91
2023/04/18 06:34:26;;;;;;;27.92;18.92;;;;;;;;;;5016439;28;20081;-91
2023/04/18 06:36:54;;;;;;;33.75;23.95;;;;;;;;;;5016404;28;20050;-91
2023/04/18 06:39:21;;;;;;;27.15;19.65;;;;;;;;;;4999328;28;20132;-91
2023/04/18 06:41:48;;;;;;;26.02;17.52;;;;;;;;;;4999231;28;20052;-92
2023/04/18 06:44:16;;;;;;;26.83;17.17;;;;;;;;;;5016152;28;20432;-91
2023/04/18 06:46:43;;;;;;;25.35;16.70;;;;;;;;;;5016229;28;20084;-91
2023/04/18 06:49:10;;;;;;;25.17;16.08;;;;;;;;;;4998977;28;20501;-91
2023/04/18 06:51:37;;;;;;;24.35;16.10;;;;;;;;;;5016045;28;20075;-91
2023/04/18 06:54:04;;;;;;;24.05;15.65;;;;;;;;;;4998969;28;20046;-92
2023/04/18 06:56:32;;;;;;;23.35;15.93;;;;;;;;;;5016054;28;20085;-91
2023/04/18 06:59:02;;;;;;;23.35;16.25;;;;;;;;;;4999188;28;20061;-91
2023/04/18 07:01:32;;;;;;;26.50;17.50;;;;;;;;;;5016335;28;20045;-89
2023/04/18 07:04:00;;;;;;;29.23;18.45;;;;;;;;;;4998694;28;20563;-91
2023/04/18 07:06:27;;;;;;;25.02;17.73;;;;;;;;;;5015819;28;20041;-91
2023/04/18 07:08:58;;;;;;;27.63;18.08;;;;;;;;;;4998633;28;20058;-91
2023/04/18 07:11:26;;;;;;;31.20;19.50;;;;;;;;;;4998739;28;20046;-90
2023/04/18 07:13:53;;;;;;;27.63;18.67;;;;;;;;;;5015653;28;20053;-91
2023/04/18 07:16:20;;;;;;;29.60;18.65;;;;;;;;;;4998394;28;20498;-92
2023/04/18 07:18:48;;;;;;;27.63;19.10;;;;;;;;;;4998147;28;20102;-91
2023/04/18 07:21:15;;;;;;;29.63;20.15;;;;;;;;;;4998373;28;20060;-92
2023/04/18 07:23:42;;;;;;;32.15;20.95;;;;;;;;;;4998339;28;20487;-93
2023/04/18 07:26:12;;;;;;;29.15;19.55;;;;;;;;;;4998526;28;20508;-92
2023/04/18 07:28:39;;;;;;;31.42;20.60;;;;;;;;;;4998420;28;20053;-90
2023/04/18 07:31:10;;;;;;;33.70;21.13;;;;;;;;;;4998182;28;20054;-91
2023/04/18 07:33:37;;;;;;;32.47;21.20;;;;;;;;;;4998290;28;20107;-91
2023/04/18 07:36:05;;;;;;;29.42;19.42;;;;;;;;;;4997709;28;20406;-91
2023/04/18 07:38:34;;;;;;;32.72;20.52;;;;;;;;;;4998177;28;20060;-91
2023/04/18 07:41:02;;;;;;;34.85;22.02;;;;;;;;;;5014945;28;20045;-92
2023/04/18 07:43:29;;;;;;;35.65;24.80;;;;;;;;;;4997648;28;20489;-91
2023/04/18 07:45:56;;;;;;;36.03;23.63;;;;;;;;;;4997637;28;20046;-91
2023/04/18 07:48:24;;;;;;;34.05;23.88;;;;;;;;;;5014977;28;20061;-92
2023/04/18 07:50:51;;;;;;;39.75;25.63;;;;;;;;;;4997740;28;20046;-92
2023/04/18 07:53:18;;;;;;;38.67;25.88;;;;;;;;;;5014735;28;20050;-92
2023/04/18 07:55:46;;;;;;;43.42;27.55;;;;;;;;;;4997589;28;20052;-91
2023/04/18 07:58:13;;;;;;;42.08;26.98;;;;;;;;;;4997646;28;20098;-91
2023/04/18 08:00:41;;;;;;;40.40;26.73;;;;;;;;;;4998115;28;20089;-91
2023/04/18 08:03:09;;;;;;;48.08;32.17;;;;;;;;;;4997430;28;20057;-91
2023/04/18 08:05:40;;;;;;;56.00;37.13;;;;;;;;;;4997637;28;20652;-91
2023/04/18 08:08:09;;;;;;;41.80;29.75;;;;;;;;;;4997442;28;20121;-91
2023/04/18 08:10:37;;;;;;;47.53;31.75;;;;;;;;;;4997436;28;20053;-91
2023/04/18 08:13:04;;;;;;;54.15;36.63;;;;;;;;;;4997193;28;20057;-92
2023/04/18 08:15:31;;;;;;;49.58;34.08;;;;;;;;;;4997364;28;20076;-90
2023/04/18 08:17:59;;;;;;;49.30;33.30;;;;;;;;;;5013810;28;20049;-91
2023/04/18 08:20:27;;;;;;;107.07;66.97;;;;;;;;;;4997270;28;20049;-92
2023/04/18 08:22:54;;;;;;;38.42;27.98;;;;;;;;;;4997112;28;20046;-91
2023/04/18 08:25:25;;;;;;;38.85;28.48;;;;;;;;;;4997699;28;20049;-91
2023/04/18 08:27:52;;;;;;;37.13;27.63;;;;;;;;;;4997350;28;20104;-90
2023/04/18 08:30:19;;;;;;;38.78;29.35;;;;;;;;;;4996914;28;20057;-92
2023/04/18 08:32:48;;;;;;;38.15;29.35;;;;;;;;;;5014460;28;20050;-91
2023/04/18 08:35:16;;;;;;;36.83;28.63;;;;;;;;;;4997089;28;20129;-92
2023/04/18 08:37:43;;;;;;;34.88;28.40;;;;;;;;;;4996784;28;20526;-92
2023/04/18 08:40:10;;;;;;;41.20;30.95;;;;;;;;;;4996971;28;20045;-91
2023/04/18 08:42:37;;;;;;;37.83;28.85;;;;;;;;;;5013865;28;20498;-91
2023/04/18 08:45:05;;;;;;;41.92;30.20;;;;;;;;;;5014172;28;20486;-91
2023/04/18 08:47:34;;;;;;;35.17;26.33;;;;;;;;;;5014265;28;20046;-91
2023/04/18 08:50:02;;;;;;;34.38;26.75;;;;;;;;;;4997673;28;20042;-90
2023/04/18 08:52:29;;;;;;;41.05;29.77;;;;;;;;;;4997799;28;20054;-90
2023/04/18 08:54:57;;;;;;;41.28;29.63;;;;;;;;;;4998972;28;20052;-93
2023/04/18 08:57:27;;;;;;;44.28;28.90;;;;;;;;;;4997059;28;20137;-90
2023/04/18 08:59:54;;;;;;;33.80;25.77;;;;;;;;;;4999956;28;20049;-92
2023/04/18 09:02:22;;;;;;;28.77;21.35;;;;;;;;;;4999250;28;20116;-91
2023/04/18 09:04:52;;;;;;;27.88;20.67;;;;;;;;;;4999047;28;20050;-92
2023/04/18 09:07:27;;;;;;;41.40;30.30;;;;;;;;;;4998582;28;20075;-92
2023/04/18 09:09:56;;;;;;;21.40;15.68;;;;;;;;;;5013816;28;20137;-90
2023/04/18 09:12:24;;;;;;;21.08;16.42;;;;;;;;;;4996602;28;20054;-91
2023/04/18 09:14:56;;;;;;;32.05;18.13;;;;;;;;;;4996351;28;20052;-92
2023/04/18 09:17:31;;;;;;;19.77;16.50;;;;;;;;;;4996628;28;20425;-91
2023/04/18 09:20:00;;;;;;;28.25;19.02;;;;;;;;;;4996546;28;20141;-94
2023/04/18 09:22:44;;;;;;;17.67;15.80;;;;;;;;;;4996613;28;20053;-92
2023/04/18 09:25:23;;;;;;;22.45;18.80;;;;;;;;;;5013570;28;20046;-91
2023/04/18 09:27:51;;;;;;;40.35;24.17;;;;;;;;;;5013304;28;20470;-92
2023/04/18 09:30:32;;;;;;;24.02;18.88;;;;;;;;;;4999518;28;20060;-91
2023/04/18 09:33:00;;;;;;;25.48;18.33;;;;;;;;;;5017419;28;20065;-92
2023/04/18 09:35:27;;;;;;;23.30;17.40;;;;;;;;;;5000405;28;20129;-92
2023/04/18 09:37:55;;;;;;;32.03;22.08;;;;;;;;;;5000079;28;20050;-91
2023/04/18 09:40:22;;;;;;;37.15;23.23;;;;;;;;;;5017721;28;20045;-91
2023/04/18 09:42:51;;;;;;;21.55;17.10;;;;;;;;;;5017723;28;20474;-92
2023/04/18 09:45:19;;;;;;;27.63;21.65;;;;;;;;;;5000049;28;20056;-94
2023/04/18 09:47:46;;;;;;;22.05;19.42;;;;;;;;;;5000247;28;20053;-91
2023/04/18 09:50:15;;;;;;;22.02;18.67;;;;;;;;;;5017478;28;20046;-92
2023/04/18 09:52:43;;;;;;;26.00;19.35;;;;;;;;;;5017216;28;20061;-93
2023/04/18 09:55:12;;;;;;;26.77;20.25;;;;;;;;;;5016964;28;20505;-93
2023/04/18 09:57:42;;;;;;;24.85;20.08;;;;;;;;;;4999532;28;20042;-92
2023/04/18 10:00:19;;;;;;;21.92;18.13;;;;;;;;;;4999521;28;20049;-92
2023/04/18 10:02:52;;;;;;;23.08;19.98;;;;;;;;;;5017346;28;20053;-92
2023/04/18 10:05:20;;;;;;;23.83;19.05;;;;;;;;;;4999856;28;20140;-93
2023/04/18 10:07:49;;;;;;;22.17;19.77;;;;;;;;;;4999653;28;20049;-92
2023/04/18 10:10:17;;;;;;;24.05;20.45;;;;;;;;;;5016951;28;20065;-94
2023/04/18 10:12:46;;;;;;;23.08;19.02;;;;;;;;;;5000105;28;20050;-92
2023/04/18 10:15:14;;;;;;;22.65;19.42;;;;;;;;;;4999536;28;20056;-93
2023/04/18 10:17:43;;;;;;;21.58;18.63;;;;;;;;;;4999851;28;20045;-94
2023/04/18 10:20:29;;;;;;;21.65;18.75;;;;;;;;;;5002415;28;20050;-93
2023/04/18 10:22:57;;;;;;;21.98;19.02;;;;;;;;;;5016786;28;20470;-93
2023/04/18 10:25:40;;;;;;;31.35;19.30;;;;;;;;;;4999304;28;20506;-93
2023/04/18 10:28:08;;;;;;;18.33;16.40;;;;;;;;;;4999515;28;20077;-92
2023/04/18 10:30:41;;;;;;;21.38;17.77;;;;;;;;;;5016423;28;20133;-94
2023/04/18 10:33:21;;;;;;;19.73;17.70;;;;;;;;;;4999380;28;20045;-93
2023/04/18 10:35:58;;;;;;;19.17;17.10;;;;;;;;;;5000261;28;20280;-92
2023/04/18 10:38:26;;;;;;;23.75;15.68;;;;;;;;;;5016418;28;20142;-92
2023/04/18 10:41:12;;;;;;;22.20;16.65;;;;;;;;;;5016065;28;20495;-92
2023/04/18 10:43:58;;;;;;;19.08;16.95;;;;;;;;;;5016070;28;20045;-93
2023/04/18 10:46:25;;;;;;;23.27;16.90;;;;;;;;;;4998907;28;20085;-93
2023/04/18 10:49:34;;;;;;;18.00;15.02;;;;;;;;;;4999960;28;20419;-93
2023/04/18 10:52:03;;;;;;;16.00;14.02;;;;;;;;;;4959358;28;20054;-93
2023/04/18 10:54:48;;;;;;;22.38;16.20;;;;;;;;;;4991660;28;20385;-92
2023/04/18 10:57:16;;;;;;;16.63;13.48;;;;;;;;;;4999095;28;20406;-92
2023/04/18 10:59:47;;;;;;;16.63;13.43;;;;;;;;;;4998727;28;20491;-93
2023/04/18 11:02:22;;;;;;;18.92;14.70;;;;;;;;;;5016219;28;20108;-93
2023/04/18 11:04:54;;;;;;;17.92;14.10;;;;;;;;;;4999858;28;20074;-89
2023/04/18 11:07:33;;;;;;;18.92;14.30;;;;;;;;;;4998734;28;20050;-92
2023/04/18 11:10:01;;;;;;;18.35;14.95;;;;;;;;;;5015305;28;20050;-92
2023/04/18 11:12:32;;;;;;;18.23;14.73;;;;;;;;;;4998712;28;20051;-92
2023/04/18 11:15:02;;;;;;;25.23;14.55;;;;;;;;;;5015934;28;20045;-94
2023/04/18 11:17:38;;;;;;;19.30;14.27;;;;;;;;;;4996932;28;20045;-91
2023/04/18 11:20:11;;;;;;;19.27;14.32;;;;;;;;;;5014887;28;20078;-93
2023/04/18 11:22:45;;;;;;;27.52;16.83;;;;;;;;;;4998615;28;20053;-93
2023/04/18 11:25:13;;;;;;;20.42;16.63;;;;;;;;;;4998318;28;20056;-94
2023/04/18 11:27:41;;;;;;;21.95;16.75;;;;;;;;;;4998295;28;20069;-93
2023/04/18 11:30:10;;;;;;;38.92;26.83;;;;;;;;;;5015627;28;20057;-92
2023/04/18 11:32:37;;;;;;;25.90;20.35;;;;;;;;;;4998608;28;20046;-93
2023/04/18 11:35:04;;;;;;;37.95;22.98;;;;;;;;;;4998354;28;20398;-93
2023/04/18 11:37:36;;;;;;;120.35;57.85;;;;;;;;;;5015414;28;20134;-92
2023/04/18 11:40:06;;;;;;;157.30;62.78;;;;;;;;;;4998045;28;20149;-92
2023/04/18 11:42:34;;;;;;;88.68;32.72;;;;;;;;;;4998830;28;20053;-92
2023/04/18 11:45:02;;;;;;;200.75;71.35;;;;;;;;;;5015484;28;20050;-93
2023/04/18 11:47:31;;;;;;;121.32;47.63;;;;;;;;;;4997802;28;20466;-93
2023/04/18 11:50:00;;;;;;;282.20;101.30;;;;;;;;;;4998243;28;20405;-93
2023/04/18 11:52:28;;;;;;;242.82;95.40;;;;;;;;;;5014216;28;20129;-93
2023/04/18 11:54:56;;;;;;;107.78;48.60;;;;;;;;;;5015303;28;20064;-91
2023/04/18 11:57:25;;;;;;;155.80;71.78;;;;;;;;;;4998210;28;20518;-93
2023/04/18 11:59:53;;;;;;;137.32;69.10;;;;;;;;;;5014776;28;20054;-92
2023/04/18 12:02:21;;;;;;;48.33;28.15;;;;;;;;;;4997569;28;20045;-93
2023/04/18 12:04:56;;;;;;;76.93;39.75;;;;;;;;;;4997327;28;20057;-94
2023/04/18 12:07:41;;;;;;;55.10;31.58;;;;;;;;;;5015064;28;20046;-92
2023/04/18 12:10:08;;;;;;;;;;;;;;;;;;4998249;28;20042;-94
2023/04/18 12:12:36;;;;;;;66.57;37.92;;;;;;;;;;5014843;28;19921;-93
2023/04/18 12:15:03;;;;;;;100.30;56.00;;;;;;;;;;4996827;28;20096;-93
2023/04/18 12:17:31;;;;;;;57.38;35.33;;;;;;;;;;4997089;28;20136;-92
2023/04/18 12:20:02;;;;;;;36.50;25.50;;;;;;;;;;5015495;28;20053;-92
2023/04/18 12:22:49;;;;;;;28.02;21.40;;;;;;;;;;4997569;28;20125;-92
2023/04/18 12:25:20;;;;;;;31.65;25.50;;;;;;;;;;4996878;28;20057;-91
2023/04/18 12:27:57;;;;;;;28.92;18.73;;;;;;;;;;4997948;28;20050;-90
2023/04/18 12:30:26;;;;;;;30.33;19.40;;;;;;;;;;5014356;28;20062;-92
2023/04/18 12:32:54;;;;;;;23.40;17.17;;;;;;;;;;4996927;28;20054;-92
2023/04/18 12:35:22;;;;;;;20.85;17.55;;;;;;;;;;5014545;28;20077;-94
2023/04/18 12:37:50;;;;;;;24.17;18.42;;;;;;;;;;4996871;28;20046;-92
2023/04/18 12:40:18;;;;;;;25.42;17.15;;;;;;;;;;5000460;28;20046;-91
2023/04/18 12:42:47;;;;;;;22.85;16.95;;;;;;;;;;5018001;28;20061;-92
2023/04/18 12:45:15;;;;;;;24.20;16.88;;;;;;;;;;5016884;28;20081;-92
2023/04/18 12:47:43;;;;;;;20.90;16.35;;;;;;;;;;5000164;28;20475;-92
2023/04/18 12:50:16;;;;;;;22.63;17.35;;;;;;;;;;4999744;28;20050;-93
2023/04/18 12:52:44;;;;;;;25.40;17.33;;;;;;;;;;5015862;28;20505;-92
2023/04/18 12:55:12;;;;;;;23.35;16.52;;;;;;;;;;4996703;28;20050;-92
2023/04/18 12:57:39;;;;;;;20.58;17.15;;;;;;;;;;4996588;28;20137;-92
2023/04/18 13:00:10;;;;;;;24.75;17.05;;;;;;;;;;4996264;28;20054;-92
2023/04/18 13:02:37;;;;;;;26.67;17.33;;;;;;;;;;4996788;28;20096;-93
2023/04/18 13:05:06;;;;;;;19.88;15.27;;;;;;;;;;5013703;28;20116;-92
2023/04/18 13:07:36;;;;;;;19.17;15.13;;;;;;;;;;4996337;28;20129;-92
2023/04/18 13:10:03;;;;;;;26.15;15.50;;;;;;;;;;4996778;28;20058;-91
2023/04/18 13:12:31;;;;;;;22.23;16.45;;;;;;;;;;5013807;28;20046;-93
2023/04/18 13:14:58;;;;;;;23.92;16.70;;;;;;;;;;4996308;28;20046;-91
2023/04/18 13:17:25;;;;;;;25.67;17.15;;;;;;;;;;5013525;28;20505;-93
2023/04/18 13:19:52;;;;;;;28.38;16.92;;;;;;;;;;5013422;28;20050;-92
2023/04/18 13:22:20;;;;;;;28.08;16.38;;;;;;;;;;4996748;28;20050;-92
2023/04/18 13:24:47;;;;;;;27.95;16.88;;;;;;;;;;4996713;28;20050;-91
2023/04/18 13:27:14;;;;;;;28.38;17.20;;;;;;;;;;5014771;28;20060;-93
2023/04/18 13:29:43;;;;;;;25.48;17.35;;;;;;;;;;5002666;28;20058;-93
2023/04/18 13:32:10;;;;;;;22.95;17.00;;;;;;;;;;4996016;28;20359;-92
2023/04/18 13:34:39;;;;;;;24.33;16.67;;;;;;;;;;4996214;28;20050;-92
2023/04/18 13:37:06;;;;;;;35.55;17.67;;;;;;;;;;4996291;28;20046;-93
2023/04/18 13:39:33;;;;;;;33.33;18.20;;;;;;;;;;5013523;28;20081;-91
2023/04/18 13:42:03;;;;;;;36.78;16.80;;;;;;;;;;4996291;28;20415;-93
2023/04/18 13:44:31;;;;;;;23.80;17.42;;;;;;;;;;4996277;28;20054;-93
2023/04/18 13:46:58;;;;;;;31.50;17.90;;;;;;;;;;4995903;28;20053;-93
2023/04/18 13:49:25;;;;;;;29.15;17.83;;;;;;;;;;5013601;28;20555;-93
2023/04/18 13:51:55;;;;;;;28.25;17.83;;;;;;;;;;4996038;28;20050;-92
2023/04/18 13:54:25;;;;;;;34.65;18.63;;;;;;;;;;4996239;28;20052;-91
2023/04/18 13:56:53;;;;;;;25.35;17.58;;;;;;;;;;4995942;28;20498;-93
2023/04/18 13:59:20;;;;;;;25.38;17.92;;;;;;;;;;4996249;28;20380;-93
2023/04/18 14:01:47;;;;;;;26.02;17.90;;;;;;;;;;4995638;28;20050;-91
2023/04/18 14:04:15;;;;;;;25.15;18.50;;;;;;;;;;4996189;28;20077;-91
2023/04/18 14:06:43;;;;;;;32.38;19.45;;;;;;;;;;5013154;28;20509;-92
2023/04/18 14:09:10;;;;;;;30.58;18.75;;;;;;;;;;5013028;28;20053;-92
2023/04/18 14:11:37;;;;;;;32.25;18.15;;;;;;;;;;4996020;28;20072;-92
2023/04/18 14:14:05;;;;;;;29.10;18.88;;;;;;;;;;5012748;28;20052;-91
2023/04/18 14:16:33;;;;;;;29.02;19.00;;;;;;;;;;5016675;28;20081;-93
2023/04/18 14:19:01;;;;;;;35.92;19.05;;;;;;;;;;5016825;28;20054;-92
2023/04/18 14:21:28;;;;;;;25.52;18.20;;;;;;;;;;4999016;28;20140;-91
2023/04/18 14:23:56;;;;;;;40.85;20.73;;;;;;;;;;4999193;28;20085;-92